PWSweather.com
Personal Weather Stations
Station Observations
SHAHALMS1
Eftra, Falkenberg, HA

EftraFalkenberg, HA

Lat: 56.85, Lon: 12.65

Elevation: 140

Station Type:

http://hem.passagen.se/risarp101

High Low Average
Temperature 78.1°F25.6°C 54.5°F12.5°C 66.2°F19.0°C
Dew Point 59.3°F15.2°C 48.2°F9.0°C 53.4°F11.9°C
Winds 13.1 mph 21.1 kmh Calm Calm 6.0 mph SE9.7 kmh SE
Wind Gusts 20.0 mph32.2 kmh -- 8.0 mph12.9 kmh
Humidity 90% 46% 66%
Pressure 30.04 in1017.3 mb 29.89 in1012.2 mb -
Precipitation 0.00 in0.0 mm - -
Hour Temp Dew Point Humidity Winds Wind Gusts Pressure Precip Precip Rate Daily Precip Total
12:00 AM 59.5°F15.3°C 54.4°F12.4°C 83% 7.9 mph S12.7 kmh S 9.7 mph15.6 kmh 30.01 in1016.3 mb 0.00 in0.0 mm 0.00 in0.0 mm 0.00 in0.0 mm
12:15 AM 59.4°F15.2°C 54.5°F12.5°C 84% 7.9 mph S12.7 kmh S 9.7 mph15.6 kmh 30.04 in1017.3 mb 0.00 in0.0 mm 0.00 in0.0 mm 0.00 in0.0 mm
12:30 AM 59.2°F15.1°C 54.7°F12.6°C 85% 7.9 mph S12.7 kmh S 9.7 mph15.6 kmh 30.04 in1017.3 mb 0.00 in0.0 mm 0.00 in0.0 mm 0.00 in0.0 mm
12:45 AM 59.2°F15.1°C 55.0°F12.8°C 86% 7.9 mph S12.7 kmh S 9.7 mph15.6 kmh 30.04 in1017.3 mb 0.00 in0.0 mm 0.00 in0.0 mm 0.00 in0.0 mm
01:00 AM 59.0°F15.0°C 55.1°F12.8°C 87% 7.9 mph S12.7 kmh S 9.7 mph15.6 kmh 30.04 in1017.3 mb 0.00 in0.0 mm 0.00 in0.0 mm 0.00 in0.0 mm
01:15 AM 58.5°F14.7°C 54.6°F12.6°C 87% 7.9 mph S12.7 kmh S 9.7 mph15.6 kmh 30.04 in1017.3 mb 0.00 in0.0 mm 0.00 in0.0 mm 0.00 in0.0 mm
01:30 AM 58.3°F14.6°C 54.4°F12.4°C 87% 7.9 mph S12.7 kmh S 9.7 mph15.6 kmh 30.01 in1016.3 mb 0.00 in0.0 mm 0.00 in0.0 mm 0.00 in0.0 mm
01:45 AM 57.9°F14.4°C 54.4°F12.4°C 88% 7.9 mph S12.7 kmh S 9.7 mph15.6 kmh 30.01 in1016.3 mb 0.00 in0.0 mm 0.00 in0.0 mm 0.00 in0.0 mm
02:00 AM 57.9°F14.4°C 54.7°F12.6°C 89% 7.9 mph S12.7 kmh S 9.7 mph15.6 kmh 30.04 in1017.3 mb 0.00 in0.0 mm 0.00 in0.0 mm 0.00 in0.0 mm
02:15 AM 57.9°F14.4°C 55.0°F12.8°C 90% 7.9 mph S12.7 kmh S 9.7 mph15.6 kmh 30.01 in1016.3 mb 0.00 in0.0 mm 0.00 in0.0 mm 0.00 in0.0 mm
02:30 AM 57.9°F14.4°C 55.0°F12.8°C 90% 7.9 mph S12.7 kmh S 9.7 mph15.6 kmh 30.01 in1016.3 mb 0.00 in0.0 mm 0.00 in0.0 mm 0.00 in0.0 mm
02:45 AM 57.2°F14.0°C 54.0°F12.2°C 89% 7.9 mph S12.7 kmh S 9.7 mph15.6 kmh 30.01 in1016.3 mb 0.00 in0.0 mm 0.00 in0.0 mm 0.00 in0.0 mm
03:00 AM 56.1°F13.4°C 52.6°F11.4°C 88% 7.9 mph S12.7 kmh S 9.7 mph15.6 kmh 30.01 in1016.3 mb 0.00 in0.0 mm 0.00 in0.0 mm 0.00 in0.0 mm
03:15 AM 55.4°F13.0°C 51.9°F11.1°C 88% 7.9 mph S12.7 kmh S 9.7 mph15.6 kmh 30.01 in1016.3 mb 0.00 in0.0 mm 0.00 in0.0 mm 0.00 in0.0 mm
03:30 AM 55.0°F12.8°C 51.5°F10.8°C 88% 7.9 mph S12.7 kmh S 9.7 mph15.6 kmh 30.01 in1016.3 mb 0.00 in0.0 mm 0.00 in0.0 mm 0.00 in0.0 mm
03:45 AM 54.9°F12.7°C 51.4°F10.8°C 88% 7.9 mph S12.7 kmh S 9.7 mph15.6 kmh 30.01 in1016.3 mb 0.00 in0.0 mm 0.00 in0.0 mm 0.00 in0.0 mm
04:00 AM 54.5°F12.5°C 51.0°F10.6°C 88% 7.9 mph S12.7 kmh S 9.7 mph15.6 kmh 30.01 in1016.3 mb 0.00 in0.0 mm 0.00 in0.0 mm 0.00 in0.0 mm
04:15 AM 54.5°F12.5°C 51.3°F10.7°C 89% 7.9 mph S12.7 kmh S 9.7 mph15.6 kmh 30.01 in1016.3 mb 0.00 in0.0 mm 0.00 in0.0 mm 0.00 in0.0 mm
04:30 AM 54.7°F12.6°C 51.8°F11.0°C 90% 7.9 mph S12.7 kmh S 9.7 mph15.6 kmh 30.01 in1016.3 mb 0.00 in0.0 mm 0.00 in0.0 mm 0.00 in0.0 mm
04:45 AM 55.0°F12.8°C 52.2°F11.2°C 90% 7.9 mph S12.7 kmh S 9.7 mph15.6 kmh 29.98 in1015.2 mb 0.00 in0.0 mm 0.00 in0.0 mm 0.00 in0.0 mm
05:00 AM 55.4°F13.0°C 52.5°F11.4°C 90% 7.9 mph S12.7 kmh S 9.7 mph15.6 kmh 29.98 in1015.2 mb 0.00 in0.0 mm 0.00 in0.0 mm 0.00 in0.0 mm
05:15 AM 55.4°F13.0°C 52.5°F11.4°C 90% 7.9 mph S12.7 kmh S 9.7 mph15.6 kmh 29.98 in1015.2 mb 0.00 in0.0 mm 0.00 in0.0 mm 0.00 in0.0 mm
05:30 AM 55.6°F13.1°C 52.7°F11.5°C 90% 7.9 mph S12.7 kmh S 9.7 mph15.6 kmh 29.98 in1015.2 mb 0.00 in0.0 mm 0.00 in0.0 mm 0.00 in0.0 mm
05:45 AM 55.8°F13.2°C 52.9°F11.6°C 90% 7.9 mph S12.7 kmh S 9.7 mph15.6 kmh 29.98 in1015.2 mb 0.00 in0.0 mm 0.00 in0.0 mm 0.00 in0.0 mm
06:00 AM 56.5°F13.6°C 53.6°F12.0°C 90% 7.9 mph S12.7 kmh S 9.7 mph15.6 kmh 29.98 in1015.2 mb 0.00 in0.0 mm 0.00 in0.0 mm 0.00 in0.0 mm
06:15 AM 57.2°F14.0°C 54.3°F12.4°C 90% 7.9 mph S12.7 kmh S 9.7 mph15.6 kmh 29.98 in1015.2 mb 0.00 in0.0 mm 0.00 in0.0 mm 0.00 in0.0 mm
06:30 AM 57.9°F14.4°C 55.0°F12.8°C 90% 7.9 mph S12.7 kmh S 9.7 mph15.6 kmh 29.98 in1015.2 mb 0.00 in0.0 mm 0.00 in0.0 mm 0.00 in0.0 mm
06:45 AM 59.0°F15.0°C 56.1°F13.4°C 90% 7.9 mph S12.7 kmh S 9.7 mph15.6 kmh 29.98 in1015.2 mb 0.00 in0.0 mm 0.00 in0.0 mm 0.00 in0.0 mm
07:00 AM 60.1°F15.6°C 57.1°F13.9°C 90% 7.9 mph S12.7 kmh S 9.7 mph15.6 kmh 29.98 in1015.2 mb 0.00 in0.0 mm 0.00 in0.0 mm 0.00 in0.0 mm
07:15 AM 61.5°F16.4°C 58.2°F14.6°C 89% 7.9 mph S12.7 kmh S 9.7 mph15.6 kmh 29.98 in1015.2 mb 0.00 in0.0 mm 0.00 in0.0 mm 0.00 in0.0 mm
07:30 AM 63.0°F17.2°C 59.0°F15.0°C 87% 7.9 mph S12.7 kmh S 9.7 mph15.6 kmh 29.95 in1014.2 mb 0.00 in0.0 mm 0.00 in0.0 mm 0.00 in0.0 mm
07:45 AM 64.2°F17.9°C 59.3°F15.2°C 84% 7.9 mph S12.7 kmh S 9.7 mph15.6 kmh 29.98 in1015.2 mb 0.00 in0.0 mm 0.00 in0.0 mm 0.00 in0.0 mm
08:00 AM 65.1°F18.4°C 58.8°F14.9°C 80% 7.9 mph S12.7 kmh S 9.7 mph15.6 kmh 29.95 in1014.2 mb 0.00 in0.0 mm 0.00 in0.0 mm 0.00 in0.0 mm
08:15 AM 65.8°F18.8°C 58.8°F14.9°C 78% 7.9 mph S12.7 kmh S 9.7 mph15.6 kmh 29.98 in1015.2 mb 0.00 in0.0 mm 0.00 in0.0 mm 0.00 in0.0 mm
08:30 AM 67.1°F19.5°C 59.3°F15.2°C 76% 3.3 mph E5.3 kmh E 7.5 mph12.1 kmh 29.95 in1014.2 mb 0.00 in0.0 mm 0.00 in0.0 mm 0.00 in0.0 mm
08:45 AM 68.2°F20.1°C 59.2°F15.1°C 73% 1.9 mph E3.1 kmh E 8.6 mph13.8 kmh 29.95 in1014.2 mb 0.00 in0.0 mm 0.00 in0.0 mm 0.00 in0.0 mm
09:00 AM 69.1°F20.6°C 58.1°F14.5°C 68% Calm Calm -- 29.95 in1014.2 mb 0.00 in0.0 mm 0.00 in0.0 mm 0.00 in0.0 mm
09:15 AM 68.9°F20.5°C 57.5°F14.2°C 67% Calm Calm -- 29.95 in1014.2 mb 0.00 in0.0 mm 0.00 in0.0 mm 0.00 in0.0 mm
09:30 AM 70.2°F21.2°C 57.8°F14.3°C 65% 3.9 mph S6.3 kmh S 5.7 mph9.2 kmh 29.95 in1014.2 mb 0.00 in0.0 mm 0.00 in0.0 mm 0.00 in0.0 mm
09:45 AM 71.2°F21.8°C 57.5°F14.2°C 62% 3.5 mph S5.6 kmh S 8.6 mph13.8 kmh 29.98 in1015.2 mb 0.00 in0.0 mm 0.00 in0.0 mm 0.00 in0.0 mm
10:00 AM 71.8°F22.1°C 56.7°F13.7°C 59% 5.1 mph ESE8.2 kmh ESE 10.4 mph16.7 kmh 29.95 in1014.2 mb 0.00 in0.0 mm 0.00 in0.0 mm 0.00 in0.0 mm
10:15 AM 71.6°F22.0°C 55.1°F12.8°C 56% 5.2 mph S8.4 kmh S 6.4 mph10.3 kmh 29.98 in1015.2 mb 0.00 in0.0 mm 0.00 in0.0 mm 0.00 in0.0 mm
10:30 AM 72.0°F22.2°C 55.9°F13.3°C 57% 4.9 mph E7.9 kmh E 6.8 mph10.9 kmh 29.98 in1015.2 mb 0.00 in0.0 mm 0.00 in0.0 mm 0.00 in0.0 mm
10:45 AM 72.3°F22.4°C 55.7°F13.2°C 56% 13.1 mph W21.1 kmh W 16.1 mph25.9 kmh 29.98 in1015.2 mb 0.00 in0.0 mm 0.00 in0.0 mm 0.00 in0.0 mm
11:00 AM 72.9°F22.7°C 55.2°F12.9°C 54% 7.7 mph SSE12.4 kmh SSE 17.5 mph28.2 kmh 29.98 in1015.2 mb 0.00 in0.0 mm 0.00 in0.0 mm 0.00 in0.0 mm
11:15 AM 73.8°F23.2°C 55.6°F13.1°C 53% 5.9 mph S9.5 kmh S 7.9 mph12.7 kmh 29.98 in1015.2 mb 0.00 in0.0 mm 0.00 in0.0 mm 0.00 in0.0 mm
11:30 AM 74.5°F23.6°C 55.2°F12.9°C 51% 4.8 mph SE7.7 kmh SE 7.9 mph12.7 kmh 29.98 in1015.2 mb 0.00 in0.0 mm 0.00 in0.0 mm 0.00 in0.0 mm
11:45 AM 75.0°F23.9°C 55.1°F12.8°C 50% 9.3 mph ESE15.0 kmh ESE 15.7 mph25.3 kmh 29.98 in1015.2 mb 0.00 in0.0 mm 0.00 in0.0 mm 0.00 in0.0 mm
12:00 PM 75.4°F24.1°C 54.9°F12.7°C 49% 7.2 mph S11.6 kmh S 14.0 mph22.5 kmh 29.95 in1014.2 mb 0.00 in0.0 mm 0.00 in0.0 mm 0.00 in0.0 mm
12:15 PM 75.7°F24.3°C 55.2°F12.9°C 49% 7.0 mph SSE11.3 kmh SSE 12.5 mph20.1 kmh 29.98 in1015.2 mb 0.00 in0.0 mm 0.00 in0.0 mm 0.00 in0.0 mm
12:30 PM 76.3°F24.6°C 55.7°F13.2°C 49% 6.4 mph ESE10.3 kmh ESE 9.3 mph15.0 kmh 29.98 in1015.2 mb 0.00 in0.0 mm 0.00 in0.0 mm 0.00 in0.0 mm
12:45 PM 75.4°F24.1°C 54.9°F12.7°C 49% 6.9 mph SE11.1 kmh SE 16.8 mph27.0 kmh 30.01 in1016.3 mb 0.00 in0.0 mm 0.00 in0.0 mm 0.00 in0.0 mm
01:00 PM 75.7°F24.3°C 55.8°F13.2°C 50% 9.7 mph ESE15.6 kmh ESE 12.9 mph20.8 kmh 29.98 in1015.2 mb 0.00 in0.0 mm 0.00 in0.0 mm 0.00 in0.0 mm
01:15 PM 76.8°F24.9°C 55.6°F13.1°C 48% 6.8 mph SE10.9 kmh SE 15.7 mph25.3 kmh 29.98 in1015.2 mb 0.00 in0.0 mm 0.00 in0.0 mm 0.00 in0.0 mm
01:30 PM 77.7°F25.4°C 55.9°F13.3°C 47% 6.9 mph ESE11.1 kmh ESE 12.9 mph20.8 kmh 29.98 in1015.2 mb 0.00 in0.0 mm 0.00 in0.0 mm 0.00 in0.0 mm
01:45 PM 78.1°F25.6°C 56.2°F13.4°C 47% 8.5 mph E13.7 kmh E 16.5 mph26.6 kmh 29.98 in1015.2 mb 0.00 in0.0 mm 0.00 in0.0 mm 0.00 in0.0 mm
02:00 PM 77.9°F25.5°C 55.5°F13.1°C 46% 8.5 mph E13.7 kmh E 20.0 mph32.2 kmh 29.98 in1015.2 mb 0.00 in0.0 mm 0.00 in0.0 mm 0.00 in0.0 mm
02:15 PM 76.3°F24.6°C 54.6°F12.6°C 47% 9.9 mph E15.9 kmh E 12.5 mph20.1 kmh 29.98 in1015.2 mb 0.00 in0.0 mm 0.00 in0.0 mm 0.00 in0.0 mm
02:30 PM 77.2°F25.1°C 55.4°F13.0°C 47% 5.9 mph SE9.5 kmh SE 12.5 mph20.1 kmh 29.95 in1014.2 mb 0.00 in0.0 mm 0.00 in0.0 mm 0.00 in0.0 mm
02:45 PM 76.3°F24.6°C 54.6°F12.6°C 47% 5.5 mph S8.9 kmh S 10.4 mph16.7 kmh 29.95 in1014.2 mb 0.00 in0.0 mm 0.00 in0.0 mm 0.00 in0.0 mm
03:00 PM 76.1°F24.5°C 54.4°F12.4°C 47% 5.4 mph SE8.7 kmh SE 10.0 mph16.1 kmh 29.98 in1015.2 mb 0.00 in0.0 mm 0.00 in0.0 mm 0.00 in0.0 mm
03:15 PM 76.1°F24.5°C 55.0°F12.8°C 48% 6.1 mph SSE9.8 kmh SSE 12.5 mph20.1 kmh 29.98 in1015.2 mb 0.00 in0.0 mm 0.00 in0.0 mm 0.00 in0.0 mm
03:30 PM 76.1°F24.5°C 54.4°F12.4°C 47% 4.9 mph S7.9 kmh S 6.1 mph9.8 kmh 29.98 in1015.2 mb 0.00 in0.0 mm 0.00 in0.0 mm 0.00 in0.0 mm
03:45 PM 75.4°F24.1°C 53.7°F12.1°C 47% 4.9 mph S7.9 kmh S 6.1 mph9.8 kmh 29.98 in1015.2 mb 0.00 in0.0 mm 0.00 in0.0 mm 0.00 in0.0 mm
04:00 PM 74.7°F23.7°C 53.7°F12.1°C 48% 2.0 mph E3.2 kmh E 2.5 mph4.0 kmh 29.98 in1015.2 mb 0.00 in0.0 mm 0.00 in0.0 mm 0.00 in0.0 mm
04:15 PM 74.3°F23.5°C 53.3°F11.8°C 48% 4.1 mph SE6.6 kmh SE 6.1 mph9.8 kmh 29.98 in1015.2 mb 0.00 in0.0 mm 0.00 in0.0 mm 0.00 in0.0 mm
04:30 PM 73.9°F23.3°C 53.0°F11.7°C 48% 4.9 mph SE7.9 kmh SE 6.1 mph9.8 kmh 29.95 in1014.2 mb 0.00 in0.0 mm 0.00 in0.0 mm 0.00 in0.0 mm
04:45 PM 73.2°F22.9°C 52.9°F11.6°C 49% 4.9 mph SE7.9 kmh SE 6.1 mph9.8 kmh 29.95 in1014.2 mb 0.00 in0.0 mm 0.00 in0.0 mm 0.00 in0.0 mm
05:00 PM 72.7°F22.6°C 52.4°F11.3°C 49% 11.3 mph E18.2 kmh E 14.0 mph22.5 kmh 29.95 in1014.2 mb 0.00 in0.0 mm 0.00 in0.0 mm 0.00 in0.0 mm
05:15 PM 72.1°F22.3°C 51.4°F10.8°C 48% 9.9 mph E15.9 kmh E 12.2 mph19.6 kmh 29.95 in1014.2 mb 0.00 in0.0 mm 0.00 in0.0 mm 0.00 in0.0 mm
05:30 PM 71.4°F21.9°C 50.7°F10.4°C 48% 9.9 mph E15.9 kmh E 12.2 mph19.6 kmh 29.95 in1014.2 mb 0.00 in0.0 mm 0.00 in0.0 mm 0.00 in0.0 mm
05:45 PM 70.9°F21.6°C 50.2°F10.1°C 48% 6.9 mph SE11.1 kmh SE 9.3 mph15.0 kmh 29.95 in1014.2 mb 0.00 in0.0 mm 0.00 in0.0 mm 0.00 in0.0 mm
06:00 PM 70.3°F21.3°C 49.7°F9.8°C 48% 7.6 mph S12.2 kmh S 9.3 mph15.0 kmh 29.95 in1014.2 mb 0.00 in0.0 mm 0.00 in0.0 mm 0.00 in0.0 mm
06:15 PM 69.6°F20.9°C 49.6°F9.8°C 49% 7.6 mph S12.2 kmh S 9.3 mph15.0 kmh 29.95 in1014.2 mb 0.00 in0.0 mm 0.00 in0.0 mm 0.00 in0.0 mm
06:30 PM 69.1°F20.6°C 49.7°F9.8°C 50% 5.2 mph NE8.4 kmh NE 6.4 mph10.3 kmh 29.95 in1014.2 mb 0.00 in0.0 mm 0.00 in0.0 mm 0.00 in0.0 mm
06:45 PM 68.5°F20.3°C 49.2°F9.6°C 50% 4.4 mph E7.1 kmh E 5.4 mph8.7 kmh 29.95 in1014.2 mb 0.00 in0.0 mm 0.00 in0.0 mm 0.00 in0.0 mm
07:00 PM 67.8°F19.9°C 49.0°F9.4°C 51% 4.4 mph E7.1 kmh E 5.4 mph8.7 kmh 29.98 in1015.2 mb 0.00 in0.0 mm 0.00 in0.0 mm 0.00 in0.0 mm
07:15 PM 67.5°F19.7°C 48.7°F9.3°C 51% 3.8 mph NE6.1 kmh NE 4.7 mph7.6 kmh 29.95 in1014.2 mb 0.00 in0.0 mm 0.00 in0.0 mm 0.00 in0.0 mm
07:30 PM 66.9°F19.4°C 48.7°F9.3°C 52% 3.8 mph NE6.1 kmh NE 4.7 mph7.6 kmh 29.98 in1015.2 mb 0.00 in0.0 mm 0.00 in0.0 mm 0.00 in0.0 mm
07:45 PM 66.4°F19.1°C 48.2°F9.0°C 52% 3.8 mph NE6.1 kmh NE 4.7 mph7.6 kmh 29.95 in1014.2 mb 0.00 in0.0 mm 0.00 in0.0 mm 0.00 in0.0 mm
08:00 PM 65.8°F18.8°C 48.2°F9.0°C 53% Calm Calm -- 29.95 in1014.2 mb 0.00 in0.0 mm 0.00 in0.0 mm 0.00 in0.0 mm
08:15 PM 65.5°F18.6°C 48.4°F9.1°C 54% Calm Calm -- 29.95 in1014.2 mb 0.00 in0.0 mm 0.00 in0.0 mm 0.00 in0.0 mm
08:30 PM 65.3°F18.5°C 48.7°F9.3°C 55% Calm Calm -- 29.95 in1014.2 mb 0.00 in0.0 mm 0.00 in0.0 mm 0.00 in0.0 mm
08:50 PM 65.1°F18.4°C 48.5°F9.2°C 55% Calm Calm -- 29.95 in1014.2 mb 0.00 in0.0 mm 0.00 in0.0 mm 0.00 in0.0 mm
09:00 PM 64.9°F18.3°C 48.9°F9.4°C 56% Calm Calm -- 29.92 in1013.2 mb 0.00 in0.0 mm 0.00 in0.0 mm 0.00 in0.0 mm
09:15 PM 64.8°F18.2°C 49.2°F9.6°C 57% Calm Calm -- 29.92 in1013.2 mb 0.00 in0.0 mm 0.00 in0.0 mm 0.00 in0.0 mm
09:30 PM 64.6°F18.1°C 49.0°F9.4°C 57% Calm Calm -- 29.95 in1014.2 mb 0.00 in0.0 mm 0.00 in0.0 mm 0.00 in0.0 mm
09:45 PM 64.4°F18.0°C 49.3°F9.6°C 58% Calm Calm -- 29.95 in1014.2 mb 0.00 in0.0 mm 0.00 in0.0 mm 0.00 in0.0 mm
10:00 PM 64.2°F17.9°C 49.1°F9.5°C 58% Calm Calm -- 29.92 in1013.2 mb 0.00 in0.0 mm 0.00 in0.0 mm 0.00 in0.0 mm
10:15 PM 64.2°F17.9°C 49.6°F9.8°C 59% Calm Calm -- 29.92 in1013.2 mb 0.00 in0.0 mm 0.00 in0.0 mm 0.00 in0.0 mm
10:30 PM 64.0°F17.8°C 49.4°F9.7°C 59% Calm Calm -- 29.92 in1013.2 mb 0.00 in0.0 mm 0.00 in0.0 mm 0.00 in0.0 mm
10:45 PM 63.9°F17.7°C 49.7°F9.8°C 60% Calm Calm -- 29.89 in1012.2 mb 0.00 in0.0 mm 0.00 in0.0 mm 0.00 in0.0 mm
11:00 PM 63.9°F17.7°C 49.7°F9.8°C 60% Calm Calm -- 29.92 in1013.2 mb 0.00 in0.0 mm 0.00 in0.0 mm 0.00 in0.0 mm
11:15 PM 63.7°F17.6°C 50.0°F10.0°C 61% Calm Calm -- 29.92 in1013.2 mb 0.00 in0.0 mm 0.00 in0.0 mm 0.00 in0.0 mm
11:30 PM 63.7°F17.6°C 50.4°F10.2°C 62% Calm Calm -- 29.92 in1013.2 mb 0.00 in0.0 mm 0.00 in0.0 mm 0.00 in0.0 mm
11:45 PM 62.8°F17.1°C 50.8°F10.4°C 65% Calm Calm -- 29.92 in1013.2 mb 0.00 in0.0 mm 0.00 in0.0 mm 0.00 in0.0 mm